createdAt,value
2018-12-01T00:00:24.476Z,98433.95
2018-12-01T00:02:52.899Z,98432.89
2018-12-01T00:05:27.628Z,98432.34
2018-12-01T00:07:56.543Z,98429.95
2018-12-01T00:10:25.043Z,98432.42
2018-12-01T00:12:53.682Z,98429.00
2018-12-01T00:15:24.847Z,98432.85
2018-12-01T00:17:53.870Z,98431.92
2018-12-01T00:20:28.017Z,98436.64
2018-12-01T00:22:56.360Z,98429.39
2018-12-01T00:25:25.019Z,98430.85
2018-12-01T00:27:53.626Z,98429.54
2018-12-01T00:30:23.562Z,98426.36
2018-12-01T00:32:53.528Z,98435.59
2018-12-01T00:35:22.505Z,98437.80
2018-12-01T00:37:50.915Z,98431.86
2018-12-01T00:40:20.679Z,98431.69
2018-12-01T00:42:49.267Z,98421.52
2018-12-01T00:45:19.006Z,98429.33
2018-12-01T00:47:51.878Z,98436.01
2018-12-01T00:50:21.990Z,98437.80
2018-12-01T00:52:51.802Z,98437.98
2018-12-01T00:55:20.613Z,98443.30
2018-12-01T00:57:49.095Z,98449.70
2018-12-01T01:00:22.438Z,98449.22
2018-12-01T01:02:55.240Z,98455.93
2018-12-01T01:05:25.917Z,98453.44
2018-12-01T01:07:55.775Z,98450.84
2018-12-01T01:10:26.011Z,98461.08
2018-12-01T01:12:54.330Z,98465.88
2018-12-01T01:15:23.195Z,98463.23
2018-12-01T01:17:51.873Z,98464.24
2018-12-01T01:20:22.085Z,98457.71
2018-12-01T01:22:50.969Z,98452.77
2018-12-01T01:25:19.653Z,98459.59
2018-12-01T01:27:48.037Z,98462.06
2018-12-01T01:30:21.930Z,98463.95
2018-12-01T01:32:52.086Z,98470.47
2018-12-01T01:35:20.566Z,98461.78
2018-12-01T01:37:49.498Z,98468.46
2018-12-01T01:40:18.537Z,98470.36
2018-12-01T01:42:46.935Z,98477.15
2018-12-01T01:45:16.795Z,98476.42
2018-12-01T01:47:45.802Z,98481.59
2018-12-01T01:50:17.086Z,98485.16
2018-12-01T01:52:46.502Z,98488.17
2018-12-01T01:55:14.862Z,98488.12
2018-12-01T01:57:43.345Z,98479.33
2018-12-01T02:00:18.015Z,98478.06
2018-12-01T02:02:47.831Z,98476.84
2018-12-01T02:05:18.159Z,98477.72
2018-12-01T02:07:46.583Z,98482.88
2018-12-01T02:10:16.242Z,98473.91
2018-12-01T02:12:44.633Z,98482.22
2018-12-01T02:15:14.102Z,98489.83
2018-12-01T02:17:43.134Z,98479.48
2018-12-01T02:20:13.504Z,98476.47
2018-12-01T02:22:41.805Z,98473.25
2018-12-01T02:25:14.768Z,98475.74
2018-12-01T02:27:43.918Z,98479.77
2018-12-01T02:30:17.791Z,98479.28
2018-12-01T02:32:46.531Z,98483.40
2018-12-01T02:35:18.010Z,98485.99
2018-12-01T02:37:47.077Z,98486.72
2018-12-01T02:40:15.544Z,98481.27
2018-12-01T02:42:44.351Z,98480.36
2018-12-01T02:45:30.210Z,98488.80
2018-12-01T02:47:59.256Z,98480.89
2018-12-01T02:50:28.398Z,98485.28
2018-12-01T02:52:59.217Z,98488.95
2018-12-01T02:55:27.802Z,98490.70
2018-12-01T02:57:56.284Z,98480.56
2018-12-01T03:00:24.748Z,98479.16
2018-12-01T03:02:53.100Z,98484.47
2018-12-01T03:05:23.064Z,98488.30
2018-12-01T03:07:52.699Z,98487.90
2018-12-01T03:10:21.679Z,98484.41
2018-12-01T03:12:52.253Z,98488.94
2018-12-01T03:15:20.671Z,98487.41
2018-12-01T03:17:50.845Z,98488.67
2018-12-01T03:20:19.376Z,98486.12
2018-12-01T03:22:47.715Z,98495.97
2018-12-01T03:25:18.397Z,98497.39
2018-12-01T03:27:47.917Z,98491.05
2018-12-01T03:30:22.033Z,98492.82
2018-12-01T03:32:50.995Z,98487.20
2018-12-01T03:35:20.490Z,98485.00
2018-12-01T03:37:49.315Z,98486.30
2018-12-01T03:40:19.358Z,98493.52
2018-12-01T03:42:47.963Z,98493.73
2018-12-01T03:45:18.494Z,98499.64
2018-12-01T03:47:47.166Z,98494.95
2018-12-01T03:50:23.110Z,98491.42
2018-12-01T03:52:55.941Z,98492.19
2018-12-01T03:55:32.181Z,98487.91
2018-12-01T03:58:01.541Z,98489.70
2018-12-01T04:00:31.584Z,98488.55
2018-12-01T04:03:01.655Z,98485.76
2018-12-01T04:05:30.298Z,98479.95
2018-12-01T04:07:58.768Z,98485.58
2018-12-01T04:10:27.209Z,98486.17
2018-12-01T04:12:55.832Z,98485.33
2018-12-01T04:15:25.168Z,98489.12
2018-12-01T04:17:53.553Z,98490.36
2018-12-01T04:20:21.975Z,98495.26
2018-12-01T04:22:50.743Z,98499.27
2018-12-01T04:25:19.669Z,98495.26
2018-12-01T04:27:48.063Z,98493.44
2018-12-01T04:30:22.961Z,98495.49
2018-12-01T04:32:51.581Z,98501.89
2018-12-01T04:35:23.014Z,98496.75
2018-12-01T04:37:53.793Z,98502.98
2018-12-01T04:40:22.458Z,98497.77
2018-12-01T04:42:50.917Z,98495.92
2018-12-01T04:45:19.416Z,98496.42
2018-12-01T04:47:48.394Z,98499.03
2018-12-01T04:50:18.222Z,98493.00
2018-12-01T04:52:48.118Z,98495.09
2018-12-01T04:55:18.549Z,98496.97
2018-12-01T04:57:47.087Z,98496.98
2018-12-01T05:00:18.382Z,98495.16
2018-12-01T05:02:47.218Z,98495.82
2018-12-01T05:05:19.780Z,98501.70
2018-12-01T05:07:48.466Z,98508.00
2018-12-01T05:10:18.457Z,98501.94
2018-12-01T05:12:46.806Z,98499.92
2018-12-01T05:15:17.540Z,98505.45
2018-12-01T05:17:46.554Z,98505.99
2018-12-01T05:20:20.609Z,98506.53
2018-12-01T05:22:49.764Z,98511.44
2018-12-01T05:25:19.508Z,98503.25
2018-12-01T05:27:48.236Z,98513.57
2018-12-01T05:30:16.846Z,98522.67
2018-12-01T05:32:45.499Z,98517.48
2018-12-01T05:35:18.927Z,98514.44
2018-12-01T05:37:47.203Z,98518.80
2018-12-01T05:40:15.508Z,98516.60
2018-12-01T05:42:44.094Z,98519.61
2018-12-01T05:45:19.234Z,98522.26
2018-12-01T05:47:47.854Z,98523.36
2018-12-01T05:50:28.022Z,98528.02
2018-12-01T05:52:57.139Z,98526.30
2018-12-01T05:55:25.624Z,98533.81
2018-12-01T05:57:54.020Z,98528.94
2018-12-01T06:00:22.424Z,98532.08
2018-12-01T06:02:51.986Z,98523.98
2018-12-01T06:05:20.332Z,98528.70
2018-12-01T06:07:49.281Z,98530.99
2018-12-01T06:10:19.863Z,98530.34
2018-12-01T06:12:49.880Z,98534.77
2018-12-01T06:15:19.838Z,98539.81
2018-12-01T06:17:48.294Z,98542.75
2018-12-01T06:20:19.571Z,98545.09
2018-12-01T06:22:47.848Z,98549.88
2018-12-01T06:25:18.227Z,98554.33
2018-12-01T06:27:46.911Z,98557.33
2018-12-01T06:30:17.936Z,98557.09
2018-12-01T06:32:47.462Z,98563.86
2018-12-01T06:35:16.283Z,98568.44
2018-12-01T06:37:44.657Z,98568.97
2018-12-01T06:40:18.258Z,98575.02
2018-12-01T06:42:46.931Z,98578.65
2018-12-01T06:45:16.179Z,98580.81
2018-12-01T06:47:44.783Z,98585.92
2018-12-01T06:50:20.552Z,98586.25
2018-12-01T06:52:49.621Z,98588.80
2018-12-01T06:55:18.258Z,98593.44
2018-12-01T06:57:47.297Z,98595.93
2018-12-01T07:00:19.117Z,98589.55
2018-12-01T07:02:48.186Z,98591.17
2018-12-01T07:05:17.823Z,98591.13
2018-12-01T07:07:46.181Z,98596.43
2018-12-01T07:10:16.843Z,98597.47
2018-12-01T07:12:49.166Z,98602.96
2018-12-01T07:15:19.350Z,98602.42
2018-12-01T07:17:47.985Z,98598.16
2018-12-01T07:20:16.940Z,98601.38
2018-12-01T07:22:45.323Z,98598.84
2018-12-01T07:25:13.634Z,98592.45
2018-12-01T07:27:42.120Z,98596.28
2018-12-01T07:30:14.489Z,98594.56
2018-12-01T07:32:44.026Z,98604.03
2018-12-01T07:35:12.407Z,98599.97
2018-12-01T07:37:41.328Z,98592.16
2018-12-01T07:40:15.029Z,98588.80
2018-12-01T07:42:43.866Z,98578.83
2018-12-01T07:45:14.113Z,98583.70
2018-12-01T07:47:42.530Z,98588.80
2018-12-01T07:50:12.129Z,98591.16
2018-12-01T07:52:41.466Z,98595.43
2018-12-01T07:55:09.891Z,98594.39
2018-12-01T07:57:38.335Z,98596.20
2018-12-01T08:00:12.203Z,98594.69
2018-12-01T08:02:41.406Z,98602.20
2018-12-01T08:05:11.107Z,98601.84
2018-12-01T08:07:39.798Z,98598.77
2018-12-01T08:10:12.786Z,98594.09
2018-12-01T08:12:41.607Z,98599.72
2018-12-01T08:15:15.686Z,98598.52
2018-12-01T08:17:45.130Z,98595.98
2018-12-01T08:20:15.203Z,98595.09
2018-12-01T08:22:43.650Z,98597.77
2018-12-01T08:25:15.984Z,98596.50
2018-12-01T08:27:45.633Z,98597.41
2018-12-01T08:30:25.889Z,98594.90
2018-12-01T08:32:54.248Z,98594.67
2018-12-01T08:35:23.495Z,98589.20
2018-12-01T08:37:52.637Z,98588.39
2018-12-01T08:40:23.171Z,98591.22
2018-12-01T08:42:51.525Z,98586.55
2018-12-01T08:45:20.266Z,98588.39
2018-12-01T08:47:48.642Z,98585.03
2018-12-01T08:50:21.740Z,98583.82
2018-12-01T08:52:57.173Z,98582.50
2018-12-01T08:55:25.608Z,98574.85
2018-12-01T08:57:54.292Z,98568.86
2018-12-01T09:00:27.434Z,98564.50
2018-12-01T09:03:00.642Z,98568.72
2018-12-01T09:05:28.969Z,98576.06
2018-12-01T09:07:57.837Z,98571.28
2018-12-01T09:10:26.222Z,98574.72
2018-12-01T09:12:54.555Z,98579.39
2018-12-01T09:15:22.954Z,98574.99
2018-12-01T09:17:51.571Z,98583.34
2018-12-01T09:20:19.887Z,98580.66
2018-12-01T09:22:48.317Z,98579.11
2018-12-01T09:25:18.542Z,98577.22
2018-12-01T09:27:47.458Z,98575.06
2018-12-01T09:30:28.298Z,98574.30
2018-12-01T09:32:57.411Z,98569.72
2018-12-01T09:35:25.312Z,98560.58
2018-12-01T09:37:55.179Z,98561.48
2018-12-01T09:40:24.209Z,98567.15
2018-12-01T09:42:52.675Z,98570.66
2018-12-01T09:45:23.008Z,98571.93
2018-12-01T09:47:53.653Z,98564.44
2018-12-01T09:50:22.240Z,98559.56
2018-12-01T09:52:53.743Z,98557.38
2018-12-01T09:55:28.951Z,98557.97
2018-12-01T09:57:58.782Z,98558.06
2018-12-01T10:00:32.537Z,98552.77
2018-12-01T10:03:03.599Z,98556.95
2018-12-01T10:05:33.718Z,98557.49
2018-12-01T10:08:02.246Z,98553.50
2018-12-01T10:10:30.958Z,98553.83
2018-12-01T10:12:59.332Z,98552.29
2018-12-01T10:15:33.062Z,98550.05
2018-12-01T10:18:01.722Z,98541.30
2018-12-01T10:20:33.146Z,98547.77
2018-12-01T10:23:03.890Z,98536.43
2018-12-01T10:25:32.370Z,98538.70
2018-12-01T10:28:01.112Z,98539.00
2018-12-01T10:30:29.806Z,98533.03
2018-12-01T10:32:58.290Z,98537.70
2018-12-01T10:35:27.370Z,98532.15
2018-12-01T10:38:02.184Z,98520.62
2018-12-01T10:40:30.981Z,98516.45
2018-12-01T10:42:59.341Z,98505.92
2018-12-01T10:45:28.221Z,98505.75
2018-12-01T10:47:56.842Z,98510.42
2018-12-01T10:50:25.181Z,98518.38
2018-12-01T10:52:54.843Z,98512.23
2018-12-01T10:55:30.554Z,98518.80
2018-12-01T10:58:16.789Z,98521.91
2018-12-01T11:00:52.541Z,98523.66
2018-12-01T11:03:27.878Z,98523.22
2018-12-01T11:05:58.023Z,98522.05
2018-12-01T11:08:26.478Z,98511.39
2018-12-01T11:10:55.340Z,98508.47
2018-12-01T11:13:23.511Z,98501.67
2018-12-01T11:15:51.990Z,98500.63
2018-12-01T11:18:20.743Z,98500.15
2018-12-01T11:20:49.221Z,98496.71
2018-12-01T11:23:17.672Z,98493.62
2018-12-01T11:25:46.422Z,98487.38
2018-12-01T11:28:15.098Z,98486.11
2018-12-01T11:30:43.419Z,98489.02
2018-12-01T11:33:11.796Z,98482.95
2018-12-01T11:35:40.286Z,98467.16
2018-12-01T11:38:09.153Z,98469.36
2018-12-01T11:40:37.793Z,98473.78
2018-12-01T11:43:08.466Z,98459.50
2018-12-01T11:45:36.797Z,98460.82
2018-12-01T11:48:06.071Z,98452.34
2018-12-01T11:50:34.703Z,98446.27
2018-12-01T11:53:03.774Z,98450.59
2018-12-01T11:55:32.242Z,98441.99
2018-12-01T11:58:01.688Z,98435.98
2018-12-01T12:00:30.444Z,98439.94
2018-12-01T12:02:59.598Z,98434.19
2018-12-01T12:05:28.008Z,98441.70
2018-12-01T12:08:13.392Z,98444.50
2018-12-01T12:10:41.891Z,98444.02
2018-12-01T12:13:10.798Z,98449.19
2018-12-01T12:15:39.169Z,98445.00
2018-12-01T12:18:07.794Z,98439.70
2018-12-01T12:20:36.438Z,98432.11
2018-12-01T12:23:05.941Z,98439.19
2018-12-01T12:25:34.635Z,98439.79
2018-12-01T12:28:03.252Z,98436.64
2018-12-01T12:30:31.624Z,98442.29
2018-12-01T12:33:00.087Z,98437.77
2018-12-01T12:35:28.305Z,98440.02
2018-12-01T12:37:56.672Z,98436.20
2018-12-01T12:40:27.010Z,98437.63
2018-12-01T12:42:57.050Z,98430.89
2018-12-01T12:45:25.516Z,98417.65
2018-12-01T12:47:54.210Z,98422.36
2018-12-01T12:50:22.966Z,98417.52
2018-12-01T12:52:53.924Z,98416.65
2018-12-01T12:55:26.766Z,98401.20
2018-12-01T12:57:55.139Z,98404.83
2018-12-01T13:00:24.946Z,98411.59
2018-12-01T13:03:04.566Z,98414.67
2018-12-01T13:05:42.858Z,98409.74
2018-12-01T13:08:13.630Z,98402.17
2018-12-01T13:10:42.041Z,98400.44
2018-12-01T13:13:10.597Z,98390.91
2018-12-01T13:15:40.037Z,98386.88
2018-12-01T13:18:12.891Z,98379.98
2018-12-01T13:20:43.227Z,98382.63
2018-12-01T13:23:11.636Z,98383.26
2018-12-01T13:25:41.115Z,98371.83
2018-12-01T13:28:17.892Z,98375.37
2018-12-01T13:30:51.292Z,98373.88
2018-12-01T13:33:20.061Z,98370.97
2018-12-01T13:35:48.618Z,98374.60
2018-12-01T13:38:17.464Z,98366.05
2018-12-01T13:40:45.862Z,98363.44
2018-12-01T13:43:14.226Z,98362.63
2018-12-01T13:45:42.672Z,98358.30
2018-12-01T13:48:12.106Z,98366.05
2018-12-01T13:50:40.433Z,98367.69
2018-12-01T13:53:11.506Z,98364.52
2018-12-01T13:55:40.183Z,98367.92
2018-12-01T13:58:08.597Z,98367.34
2018-12-01T14:00:37.359Z,98365.81
2018-12-01T14:03:06.527Z,98368.95
2018-12-01T14:05:34.899Z,98366.52
2018-12-01T14:08:03.387Z,98368.34
2018-12-01T14:10:32.430Z,98372.21
2018-12-01T14:13:08.429Z,98378.25
2018-12-01T14:15:36.799Z,98381.29
2018-12-01T14:18:06.375Z,98382.52
2018-12-01T14:20:34.842Z,98383.04
2018-12-01T14:23:03.303Z,98381.61
2018-12-01T14:25:31.794Z,98381.89
2018-12-01T14:28:04.115Z,98379.71
2018-12-01T14:30:32.772Z,98376.23
2018-12-01T14:33:01.128Z,98380.69
2018-12-01T14:35:33.682Z,98379.38
2018-12-01T14:38:18.640Z,98381.97
2018-12-01T14:40:49.818Z,98388.94
2018-12-01T14:43:18.212Z,98382.64
2018-12-01T14:45:48.714Z,98386.27
2018-12-01T14:48:17.315Z,98387.17
2018-12-01T14:50:48.523Z,98382.93
2018-12-01T14:53:16.634Z,98384.99
2018-12-01T14:55:45.019Z,98373.53
2018-12-01T14:58:13.459Z,98369.84
2018-12-01T15:00:41.761Z,98367.12
2018-12-01T15:03:10.272Z,98362.78
2018-12-01T15:05:40.236Z,98358.41
2018-12-01T15:08:08.732Z,98357.39
2018-12-01T15:10:37.336Z,98357.61
2018-12-01T15:13:06.394Z,98350.27
2018-12-01T15:15:34.740Z,98355.71
2018-12-01T15:18:03.539Z,98356.83
2018-12-01T15:20:32.299Z,98367.61
2018-12-01T15:23:00.943Z,98354.93
2018-12-01T15:25:31.115Z,98354.17
2018-12-01T15:27:59.752Z,98351.20
2018-12-01T15:30:29.368Z,98353.77
2018-12-01T15:33:16.662Z,98344.09
2018-12-01T15:35:46.687Z,98351.41
2018-12-01T15:38:15.866Z,98361.95
2018-12-01T15:40:46.789Z,98358.70
2018-12-01T15:43:16.979Z,98356.13
2018-12-01T15:45:44.508Z,98355.42
2018-12-01T15:48:13.032Z,98353.65
2018-12-01T15:50:41.529Z,98350.41
2018-12-01T15:53:13.081Z,98354.66
2018-12-01T15:55:43.198Z,98357.91
2018-12-01T15:58:10.582Z,98349.98
2018-12-01T16:00:40.148Z,98351.78
2018-12-01T16:03:08.624Z,98355.20
2018-12-01T16:05:37.053Z,98357.63
2018-12-01T16:08:07.072Z,98360.00
2018-12-01T16:10:35.377Z,98358.19
2018-12-01T16:13:10.189Z,98354.77
2018-12-01T16:16:10.661Z,98354.30
2018-12-01T16:18:39.023Z,98350.77
2018-12-01T16:21:07.447Z,98350.49
2018-12-01T16:23:35.730Z,98349.88
2018-12-01T16:26:04.366Z,98350.53
2018-12-01T16:28:32.836Z,98342.07
2018-12-01T16:31:01.277Z,98344.47
2018-12-01T16:33:29.793Z,98343.02
2018-12-01T16:35:58.747Z,98342.73
2018-12-01T16:38:29.837Z,98343.53
2018-12-01T16:41:02.999Z,98339.58
2018-12-01T16:43:33.607Z,98339.27
2018-12-01T16:46:02.027Z,98339.06
2018-12-01T16:48:37.568Z,98339.61
2018-12-01T16:51:06.498Z,98341.70
2018-12-01T16:53:34.876Z,98345.26
2018-12-01T16:56:03.618Z,98334.30
2018-12-01T16:58:31.836Z,98332.56
2018-12-01T17:01:00.281Z,98332.77
2018-12-01T17:03:28.619Z,98332.77
2018-12-01T17:05:59.162Z,98330.42
2018-12-01T17:08:27.758Z,98327.66
2018-12-01T17:10:56.280Z,98328.05
2018-12-01T17:13:24.667Z,98335.41
2018-12-01T17:15:53.030Z,98320.89
2018-12-01T17:18:21.286Z,98321.27
2018-12-01T17:20:49.716Z,98319.09
2018-12-01T17:23:18.465Z,98319.98
2018-12-01T17:25:46.737Z,98324.01
2018-12-01T17:28:17.577Z,98314.67
2018-12-01T17:30:45.970Z,98309.17
2018-12-01T17:33:14.374Z,98306.66
2018-12-01T17:35:42.747Z,98300.78
2018-12-01T17:38:13.706Z,98297.88
2018-12-01T17:41:00.008Z,98299.98
2018-12-01T17:43:38.330Z,98298.98
2018-12-01T17:46:07.074Z,98292.05
2018-12-01T17:48:35.682Z,98297.28
2018-12-01T17:51:04.256Z,98298.45
2018-12-01T17:53:32.577Z,98296.91
2018-12-01T17:56:00.961Z,98291.90
2018-12-01T17:58:29.289Z,98294.80
2018-12-01T18:00:57.959Z,98291.80
2018-12-01T18:03:26.293Z,98289.34
2018-12-01T18:05:54.941Z,98286.23
2018-12-01T18:08:24.281Z,98285.65
2018-12-01T18:10:54.261Z,98290.64
2018-12-01T18:13:23.671Z,98284.23
2018-12-01T18:15:52.046Z,98281.30
2018-12-01T18:18:20.419Z,98283.48
2018-12-01T18:20:48.768Z,98277.70
2018-12-01T18:23:18.931Z,98276.33
2018-12-01T18:25:49.522Z,98270.18
2018-12-01T18:28:19.894Z,98267.81
2018-12-01T18:30:48.273Z,98275.24
2018-12-01T18:33:23.599Z,98277.81
2018-12-01T18:35:51.996Z,98277.16
2018-12-01T18:38:20.299Z,98276.13
2018-12-01T18:40:48.874Z,98275.03
2018-12-01T18:43:17.605Z,98277.03
2018-12-01T18:45:50.011Z,98264.34
2018-12-01T18:48:18.366Z,98256.20
2018-12-01T18:50:47.176Z,98249.05
2018-12-01T18:53:15.815Z,98248.52
2018-12-01T18:55:49.831Z,98242.63
2018-12-01T18:58:18.211Z,98241.14
2018-12-01T19:00:52.227Z,98236.53
2018-12-01T19:03:23.063Z,98236.10
2018-12-01T19:05:51.362Z,98238.75
2018-12-01T19:08:19.647Z,98243.80
2018-12-01T19:10:48.334Z,98235.38
2018-12-01T19:13:16.679Z,98229.41
2018-12-01T19:15:45.257Z,98232.73
2018-12-01T19:18:14.321Z,98232.62
2018-12-01T19:20:42.701Z,98228.77
2018-12-01T19:23:13.836Z,98229.59
2018-12-01T19:25:43.516Z,98230.17
2018-12-01T19:28:11.939Z,98224.64
2018-12-01T19:30:40.273Z,98226.20
2018-12-01T19:33:18.477Z,98227.60
2018-12-01T19:35:48.610Z,98228.95
2018-12-01T19:38:24.670Z,98220.82
2018-12-01T19:40:53.327Z,98220.77
2018-12-01T19:43:21.629Z,98226.06
2018-12-01T19:45:49.946Z,98213.10
2018-12-01T19:48:19.245Z,98212.39
2018-12-01T19:50:47.556Z,98208.77
2018-12-01T19:53:17.858Z,98202.47
2018-12-01T19:55:48.645Z,98192.73
2018-12-01T19:58:22.331Z,98192.05
2018-12-01T20:00:55.423Z,98191.61
2018-12-01T20:03:25.424Z,98183.01
2018-12-01T20:05:54.067Z,98173.63
2018-12-01T20:08:23.183Z,98179.59
2018-12-01T20:10:54.731Z,98180.78
2018-12-01T20:13:37.427Z,98173.52
2018-12-01T20:16:31.613Z,98177.82
2018-12-01T20:19:00.610Z,98178.45
2018-12-01T20:21:31.771Z,98176.34
2018-12-01T20:24:00.233Z,98178.28
2018-12-01T20:26:28.657Z,98180.03
2018-12-01T20:28:57.245Z,98190.78
2018-12-01T20:31:25.579Z,98190.67
2018-12-01T20:33:56.539Z,98196.60
2018-12-01T20:36:41.833Z,98193.09
2018-12-01T20:39:28.363Z,98192.30
2018-12-01T20:41:56.768Z,98186.66
2018-12-01T20:44:25.869Z,98172.16
2018-12-01T20:46:54.433Z,98172.50
2018-12-01T20:49:23.134Z,98172.71
2018-12-01T20:51:52.545Z,98172.25
2018-12-01T20:54:36.126Z,98166.45
2018-12-01T20:57:17.146Z,98168.81
2018-12-01T20:59:45.416Z,98161.20
2018-12-01T21:02:14.058Z,98160.72
2018-12-01T21:04:42.415Z,98146.00
2018-12-01T21:07:10.790Z,98149.13
2018-12-01T21:09:39.477Z,98153.20
2018-12-01T21:12:10.058Z,98146.92
2018-12-01T21:14:38.939Z,98148.07
2018-12-01T21:17:14.256Z,98143.77
2018-12-01T21:19:42.921Z,98129.70
2018-12-01T21:22:11.246Z,98133.30
2018-12-01T21:24:39.708Z,98122.42
2018-12-01T21:27:08.436Z,98129.58
2018-12-01T21:29:37.426Z,98119.08
2018-12-01T21:32:06.871Z,98121.02
2018-12-01T21:34:35.328Z,98121.65
2018-12-01T21:37:04.476Z,98108.98
2018-12-01T21:39:32.874Z,98103.86
2018-12-01T21:42:01.708Z,98097.15
2018-12-01T21:44:29.991Z,98095.79
2018-12-01T21:46:58.410Z,98093.55
2018-12-01T21:49:26.769Z,98086.72
2018-12-01T21:51:55.392Z,98080.72
2018-12-01T21:54:24.492Z,98073.94
2018-12-01T21:56:52.776Z,98074.81
2018-12-01T21:59:21.873Z,98079.48
2018-12-01T22:01:50.274Z,98080.52
2018-12-01T22:04:20.021Z,98082.38
2018-12-01T22:06:47.464Z,98073.47
2018-12-01T22:09:16.308Z,98074.59
2018-12-01T22:11:45.476Z,98069.12
2018-12-01T22:14:14.806Z,98063.53
2018-12-01T22:16:43.690Z,98064.95
2018-12-01T22:19:11.913Z,98061.06
2018-12-01T22:21:40.286Z,98061.64
2018-12-01T22:24:09.059Z,98062.30
2018-12-01T22:26:37.412Z,98058.06
2018-12-01T22:29:06.422Z,98054.02
2018-12-01T22:31:34.740Z,98055.52
2018-12-01T22:34:03.004Z,98052.31
2018-12-01T22:36:31.357Z,98048.63
2018-12-01T22:38:59.740Z,98044.95
2018-12-01T22:41:27.965Z,98043.34
2018-12-01T22:43:56.330Z,98043.70
2018-12-01T22:46:25.013Z,98030.96
2018-12-01T22:48:53.784Z,98031.11
2018-12-01T22:51:22.387Z,98021.36
2018-12-01T22:53:50.892Z,98026.01
2018-12-01T22:56:19.269Z,98030.91
2018-12-01T22:58:47.627Z,98023.14
2018-12-01T23:01:15.923Z,98019.90
2018-12-01T23:03:44.407Z,98019.37
2018-12-01T23:06:12.739Z,98011.06
2018-12-01T23:08:41.143Z,98008.34
2018-12-01T23:11:09.562Z,98009.08
2018-12-01T23:13:38.039Z,98006.30
2018-12-01T23:16:06.531Z,97997.75
2018-12-01T23:18:34.935Z,97991.12
2018-12-01T23:21:03.726Z,97991.55
2018-12-01T23:23:32.143Z,97986.53
2018-12-01T23:26:00.384Z,97978.28
2018-12-01T23:28:28.834Z,97973.14
2018-12-01T23:30:57.958Z,97969.82
2018-12-01T23:33:28.405Z,97963.98
2018-12-01T23:35:56.772Z,97966.29
2018-12-01T23:38:25.145Z,97963.09
2018-12-01T23:40:53.483Z,97954.78
2018-12-01T23:43:21.732Z,97957.95
2018-12-01T23:45:50.485Z,97958.75
2018-12-01T23:48:18.870Z,97957.05
2018-12-01T23:50:55.336Z,97954.52
2018-12-01T23:53:24.982Z,97949.05
2018-12-01T23:55:53.570Z,97948.46
2018-12-01T23:58:21.909Z,97941.22
